Terminal Aerodrome Forecast
Issued by NWS

Home | Current Version | Previous Version | Graphics & Text | Print | Product List | Glossary On
Versions: 1 2 3 4 5 6 7 8 9 10 11 12 13
000
FTUS43 KICT 270500
TAFHUT
TAF
KHUT 270520Z 2706/2806 VRB05KT P6SM BKN100
     FM270800 03014KT P6SM BKN120
     FM280100 02010KT P6SM BKN120=

USA.gov is the U.S. government's official web portal to all federal, state and local government web resources and services.